sensor_id;sensor_type;location;lat;lon;timestamp;P1;durP1;ratioP1;P2;durP2;ratioP2
2023;SDS011;1016;48.770;9.154;2023-05-10T00:01:03;17.73;;;1.30;;
2023;SDS011;1016;48.770;9.154;2023-05-10T00:03:29;17.90;;;1.37;;
2023;SDS011;1016;48.770;9.154;2023-05-10T00:05:54;18.27;;;1.40;;
2023;SDS011;1016;48.770;9.154;2023-05-10T00:08:20;19.33;;;1.60;;
2023;SDS011;1016;48.770;9.154;2023-05-10T00:10:45;18.10;;;1.43;;
2023;SDS011;1016;48.770;9.154;2023-05-10T00:13:11;18.10;;;1.20;;
2023;SDS011;1016;48.770;9.154;2023-05-10T00:15:37;19.60;;;1.37;;
2023;SDS011;1016;48.770;9.154;2023-05-10T00:18:02;18.53;;;1.23;;
2023;SDS011;1016;48.770;9.154;2023-05-10T00:20:28;18.40;;;1.40;;
2023;SDS011;1016;48.770;9.154;2023-05-10T00:22:53;19.80;;;1.40;;
2023;SDS011;1016;48.770;9.154;2023-05-10T00:25:19;19.47;;;1.17;;
2023;SDS011;1016;48.770;9.154;2023-05-10T00:27:46;19.17;;;1.20;;
2023;SDS011;1016;48.770;9.154;2023-05-10T00:30:12;18.70;;;1.20;;
2023;SDS011;1016;48.770;9.154;2023-05-10T00:32:37;18.10;;;1.00;;
2023;SDS011;1016;48.770;9.154;2023-05-10T00:35:03;18.50;;;1.43;;
2023;SDS011;1016;48.770;9.154;2023-05-10T00:37:28;19.13;;;1.00;;
2023;SDS011;1016;48.770;9.154;2023-05-10T00:39:54;19.13;;;1.30;;
2023;SDS011;1016;48.770;9.154;2023-05-10T00:42:20;17.93;;;1.00;;
2023;SDS011;1016;48.770;9.154;2023-05-10T00:44:45;18.27;;;0.90;;
2023;SDS011;1016;48.770;9.154;2023-05-10T00:47:11;19.37;;;1.10;;
2023;SDS011;1016;48.770;9.154;2023-05-10T00:49:37;19.10;;;1.03;;
2023;SDS011;1016;48.770;9.154;2023-05-10T00:52:03;18.13;;;0.90;;
2023;SDS011;1016;48.770;9.154;2023-05-10T00:54:28;18.00;;;0.87;;
2023;SDS011;1016;48.770;9.154;2023-05-10T00:56:54;19.60;;;1.23;;
2023;SDS011;1016;48.770;9.154;2023-05-10T00:59:21;18.13;;;0.90;;
2023;SDS011;1016;48.770;9.154;2023-05-10T01:01:47;20.60;;;1.00;;
2023;SDS011;1016;48.770;9.154;2023-05-10T01:04:13;18.77;;;0.90;;
2023;SDS011;1016;48.770;9.154;2023-05-10T01:06:40;16.55;;;0.80;;
2023;SDS011;1016;48.770;9.154;2023-05-10T01:09:06;17.80;;;1.20;;
2023;SDS011;1016;48.770;9.154;2023-05-10T01:11:34;17.10;;;0.80;;
2023;SDS011;1016;48.770;9.154;2023-05-10T01:14:01;17.00;;;0.70;;
2023;SDS011;1016;48.770;9.154;2023-05-10T01:16:27;17.43;;;0.80;;
2023;SDS011;1016;48.770;9.154;2023-05-10T01:18:57;17.57;;;0.80;;
2023;SDS011;1016;48.770;9.154;2023-05-10T01:29:27;18.83;;;0.90;;
2023;SDS011;1016;48.770;9.154;2023-05-10T01:32:16;19.00;;;0.80;;
2023;SDS011;1016;48.770;9.154;2023-05-10T01:38:07;18.57;;;0.90;;
2023;SDS011;1016;48.770;9.154;2023-05-10T01:43:31;18.40;;;1.30;;
2023;SDS011;1016;48.770;9.154;2023-05-10T01:46:09;18.00;;;0.90;;
2023;SDS011;1016;48.770;9.154;2023-05-10T01:48:47;18.10;;;0.90;;
2023;SDS011;1016;48.770;9.154;2023-05-10T01:51:17;19.87;;;1.00;;
2023;SDS011;1016;48.770;9.154;2023-05-10T01:53:48;18.17;;;1.10;;
2023;SDS011;1016;48.770;9.154;2023-05-10T01:56:16;18.20;;;0.90;;
2023;SDS011;1016;48.770;9.154;2023-05-10T01:58:47;18.70;;;0.90;;
2023;SDS011;1016;48.770;9.154;2023-05-10T02:01:14;19.00;;;1.10;;
2023;SDS011;1016;48.770;9.154;2023-05-10T02:03:41;16.50;;;0.90;;
2023;SDS011;1016;48.770;9.154;2023-05-10T02:06:09;17.80;;;0.90;;
2023;SDS011;1016;48.770;9.154;2023-05-10T02:08:37;16.23;;;0.90;;
2023;SDS011;1016;48.770;9.154;2023-05-10T02:11:05;18.50;;;1.07;;
2023;SDS011;1016;48.770;9.154;2023-05-10T02:13:31;18.33;;;1.10;;
2023;SDS011;1016;48.770;9.154;2023-05-10T02:15:59;17.87;;;0.90;;
2023;SDS011;1016;48.770;9.154;2023-05-10T02:18:26;17.60;;;0.90;;
2023;SDS011;1016;48.770;9.154;2023-05-10T02:20:52;17.03;;;0.80;;
2023;SDS011;1016;48.770;9.154;2023-05-10T02:23:19;17.83;;;1.00;;
2023;SDS011;1016;48.770;9.154;2023-05-10T02:25:46;17.87;;;0.80;;
2023;SDS011;1016;48.770;9.154;2023-05-10T02:28:14;17.70;;;0.93;;
2023;SDS011;1016;48.770;9.154;2023-05-10T02:30:40;19.07;;;0.80;;
2023;SDS011;1016;48.770;9.154;2023-05-10T02:33:07;18.23;;;0.90;;
2023;SDS011;1016;48.770;9.154;2023-05-10T02:35:33;17.87;;;0.90;;
2023;SDS011;1016;48.770;9.154;2023-05-10T02:37:59;18.60;;;0.83;;
2023;SDS011;1016;48.770;9.154;2023-05-10T02:40:26;17.97;;;1.00;;
2023;SDS011;1016;48.770;9.154;2023-05-10T02:42:54;20.17;;;0.97;;
2023;SDS011;1016;48.770;9.154;2023-05-10T02:45:22;18.00;;;0.90;;
2023;SDS011;1016;48.770;9.154;2023-05-10T02:47:51;17.97;;;1.00;;
2023;SDS011;1016;48.770;9.154;2023-05-10T02:50:17;18.87;;;0.90;;
2023;SDS011;1016;48.770;9.154;2023-05-10T02:52:44;18.90;;;1.10;;
2023;SDS011;1016;48.770;9.154;2023-05-10T02:55:12;18.27;;;1.00;;
2023;SDS011;1016;48.770;9.154;2023-05-10T02:57:41;17.90;;;1.00;;
2023;SDS011;1016;48.770;9.154;2023-05-10T03:00:13;17.87;;;0.90;;
2023;SDS011;1016;48.770;9.154;2023-05-10T03:02:39;18.27;;;1.00;;
2023;SDS011;1016;48.770;9.154;2023-05-10T03:05:05;18.20;;;1.07;;
2023;SDS011;1016;48.770;9.154;2023-05-10T03:07:31;19.43;;;1.00;;
2023;SDS011;1016;48.770;9.154;2023-05-10T03:09:58;18.20;;;1.20;;
2023;SDS011;1016;48.770;9.154;2023-05-10T03:15:45;18.73;;;1.10;;
2023;SDS011;1016;48.770;9.154;2023-05-10T03:21:22;19.47;;;1.20;;
2023;SDS011;1016;48.770;9.154;2023-05-10T03:23:58;19.23;;;1.10;;
2023;SDS011;1016;48.770;9.154;2023-05-10T03:26:29;18.40;;;1.10;;
2023;SDS011;1016;48.770;9.154;2023-05-10T03:28:55;18.60;;;1.10;;
2023;SDS011;1016;48.770;9.154;2023-05-10T03:31:23;18.23;;;1.00;;
2023;SDS011;1016;48.770;9.154;2023-05-10T03:33:49;18.90;;;1.33;;
2023;SDS011;1016;48.770;9.154;2023-05-10T03:36:16;18.23;;;1.10;;
2023;SDS011;1016;48.770;9.154;2023-05-10T03:38:42;18.10;;;0.97;;
2023;SDS011;1016;48.770;9.154;2023-05-10T03:41:07;19.17;;;1.30;;
2023;SDS011;1016;48.770;9.154;2023-05-10T03:43:33;18.20;;;1.10;;
2023;SDS011;1016;48.770;9.154;2023-05-10T03:46:01;18.27;;;1.10;;
2023;SDS011;1016;48.770;9.154;2023-05-10T03:48:27;19.10;;;1.30;;
2023;SDS011;1016;48.770;9.154;2023-05-10T03:50:53;20.00;;;1.30;;
2023;SDS011;1016;48.770;9.154;2023-05-10T03:53:18;19.30;;;1.27;;
2023;SDS011;1016;48.770;9.154;2023-05-10T03:55:44;18.97;;;1.50;;
2023;SDS011;1016;48.770;9.154;2023-05-10T03:58:12;18.63;;;1.40;;
2023;SDS011;1016;48.770;9.154;2023-05-10T04:00:38;18.37;;;1.30;;
2023;SDS011;1016;48.770;9.154;2023-05-10T04:03:08;19.30;;;1.30;;
2023;SDS011;1016;48.770;9.154;2023-05-10T04:05:34;18.20;;;1.20;;
2023;SDS011;1016;48.770;9.154;2023-05-10T04:08:00;20.70;;;1.70;;
2023;SDS011;1016;48.770;9.154;2023-05-10T04:10:25;19.40;;;1.47;;
2023;SDS011;1016;48.770;9.154;2023-05-10T04:12:51;19.10;;;1.30;;
2023;SDS011;1016;48.770;9.154;2023-05-10T04:15:16;19.67;;;1.43;;
2023;SDS011;1016;48.770;9.154;2023-05-10T04:17:42;19.20;;;1.43;;
2023;SDS011;1016;48.770;9.154;2023-05-10T04:20:07;19.70;;;1.70;;
2023;SDS011;1016;48.770;9.154;2023-05-10T04:22:33;19.67;;;1.43;;
2023;SDS011;1016;48.770;9.154;2023-05-10T04:24:59;18.80;;;1.30;;
2023;SDS011;1016;48.770;9.154;2023-05-10T04:27:24;18.50;;;1.40;;
2023;SDS011;1016;48.770;9.154;2023-05-10T04:29:50;19.90;;;1.40;;
2023;SDS011;1016;48.770;9.154;2023-05-10T04:32:15;22.67;;;1.43;;
2023;SDS011;1016;48.770;9.154;2023-05-10T04:34:42;18.90;;;1.37;;
2023;SDS011;1016;48.770;9.154;2023-05-10T04:37:08;19.10;;;1.50;;
2023;SDS011;1016;48.770;9.154;2023-05-10T04:39:34;20.77;;;1.70;;
2023;SDS011;1016;48.770;9.154;2023-05-10T04:42:00;17.73;;;1.60;;
2023;SDS011;1016;48.770;9.154;2023-05-10T04:44:27;20.20;;;1.50;;
2023;SDS011;1016;48.770;9.154;2023-05-10T04:46:53;20.90;;;1.60;;
2023;SDS011;1016;48.770;9.154;2023-05-10T04:49:18;20.00;;;1.50;;
2023;SDS011;1016;48.770;9.154;2023-05-10T04:51:44;18.37;;;1.40;;
2023;SDS011;1016;48.770;9.154;2023-05-10T04:54:10;18.53;;;1.50;;
2023;SDS011;1016;48.770;9.154;2023-05-10T04:56:35;19.00;;;1.30;;
2023;SDS011;1016;48.770;9.154;2023-05-10T04:59:01;18.27;;;1.40;;
2023;SDS011;1016;48.770;9.154;2023-05-10T05:01:27;19.80;;;1.63;;
2023;SDS011;1016;48.770;9.154;2023-05-10T05:03:53;19.60;;;1.50;;
2023;SDS011;1016;48.770;9.154;2023-05-10T05:06:18;19.67;;;1.30;;
2023;SDS011;1016;48.770;9.154;2023-05-10T05:08:45;19.43;;;1.70;;
2023;SDS011;1016;48.770;9.154;2023-05-10T05:11:11;19.60;;;1.50;;
2023;SDS011;1016;48.770;9.154;2023-05-10T05:13:36;19.47;;;1.63;;
2023;SDS011;1016;48.770;9.154;2023-05-10T05:16:02;18.80;;;1.80;;
2023;SDS011;1016;48.770;9.154;2023-05-10T05:18:28;18.80;;;1.60;;
2023;SDS011;1016;48.770;9.154;2023-05-10T05:20:53;19.70;;;1.60;;
2023;SDS011;1016;48.770;9.154;2023-05-10T05:23:19;21.30;;;3.63;;
2023;SDS011;1016;48.770;9.154;2023-05-10T05:25:45;22.00;;;1.83;;
2023;SDS011;1016;48.770;9.154;2023-05-10T05:28:11;18.70;;;1.40;;
2023;SDS011;1016;48.770;9.154;2023-05-10T05:30:37;19.20;;;1.80;;
2023;SDS011;1016;48.770;9.154;2023-05-10T05:33:02;19.00;;;1.57;;
2023;SDS011;1016;48.770;9.154;2023-05-10T05:35:28;18.97;;;1.80;;
2023;SDS011;1016;48.770;9.154;2023-05-10T05:37:53;19.60;;;2.03;;
2023;SDS011;1016;48.770;9.154;2023-05-10T05:40:19;19.23;;;1.50;;
2023;SDS011;1016;48.770;9.154;2023-05-10T05:42:45;19.30;;;1.80;;
2023;SDS011;1016;48.770;9.154;2023-05-10T05:45:11;18.87;;;1.50;;
2023;SDS011;1016;48.770;9.154;2023-05-10T05:47:38;18.73;;;1.70;;
2023;SDS011;1016;48.770;9.154;2023-05-10T05:50:04;18.50;;;1.63;;
2023;SDS011;1016;48.770;9.154;2023-05-10T05:52:30;20.47;;;1.60;;
2023;SDS011;1016;48.770;9.154;2023-05-10T05:54:55;19.23;;;1.73;;
2023;SDS011;1016;48.770;9.154;2023-05-10T05:57:21;18.70;;;1.70;;
2023;SDS011;1016;48.770;9.154;2023-05-10T05:59:46;19.13;;;1.73;;
2023;SDS011;1016;48.770;9.154;2023-05-10T06:02:12;19.10;;;1.70;;
2023;SDS011;1016;48.770;9.154;2023-05-10T06:04:38;19.37;;;1.50;;
2023;SDS011;1016;48.770;9.154;2023-05-10T06:07:03;19.10;;;1.80;;
2023;SDS011;1016;48.770;9.154;2023-05-10T06:09:29;19.57;;;1.70;;
2023;SDS011;1016;48.770;9.154;2023-05-10T06:11:54;19.70;;;1.73;;
2023;SDS011;1016;48.770;9.154;2023-05-10T06:14:20;18.90;;;1.80;;
2023;SDS011;1016;48.770;9.154;2023-05-10T06:16:46;19.40;;;1.60;;
2023;SDS011;1016;48.770;9.154;2023-05-10T06:19:11;19.07;;;1.57;;
2023;SDS011;1016;48.770;9.154;2023-05-10T06:21:37;19.30;;;1.63;;
2023;SDS011;1016;48.770;9.154;2023-05-10T06:24:03;18.90;;;1.70;;
2023;SDS011;1016;48.770;9.154;2023-05-10T06:26:28;18.90;;;1.60;;
2023;SDS011;1016;48.770;9.154;2023-05-10T06:28:54;18.67;;;1.60;;
2023;SDS011;1016;48.770;9.154;2023-05-10T06:31:19;19.83;;;2.00;;
2023;SDS011;1016;48.770;9.154;2023-05-10T06:33:45;20.00;;;1.80;;
2023;SDS011;1016;48.770;9.154;2023-05-10T06:36:11;19.40;;;1.70;;
2023;SDS011;1016;48.770;9.154;2023-05-10T06:38:36;20.50;;;1.80;;
2023;SDS011;1016;48.770;9.154;2023-05-10T06:41:02;20.90;;;1.70;;
2023;SDS011;1016;48.770;9.154;2023-05-10T06:43:28;20.73;;;1.90;;
2023;SDS011;1016;48.770;9.154;2023-05-10T06:45:53;19.40;;;1.90;;
2023;SDS011;1016;48.770;9.154;2023-05-10T06:48:19;20.17;;;1.83;;
2023;SDS011;1016;48.770;9.154;2023-05-10T06:50:44;19.20;;;1.90;;
2023;SDS011;1016;48.770;9.154;2023-05-10T06:53:10;19.30;;;1.80;;
2023;SDS011;1016;48.770;9.154;2023-05-10T06:55:36;19.50;;;1.73;;
2023;SDS011;1016;48.770;9.154;2023-05-10T06:58:02;19.47;;;2.10;;
2023;SDS011;1016;48.770;9.154;2023-05-10T07:00:28;19.67;;;1.83;;
2023;SDS011;1016;48.770;9.154;2023-05-10T07:02:53;18.70;;;1.80;;
2023;SDS011;1016;48.770;9.154;2023-05-10T07:05:19;18.97;;;2.20;;
2023;SDS011;1016;48.770;9.154;2023-05-10T07:07:45;20.23;;;3.23;;
2023;SDS011;1016;48.770;9.154;2023-05-10T07:10:11;19.90;;;1.80;;
2023;SDS011;1016;48.770;9.154;2023-05-10T07:12:36;20.77;;;1.97;;
2023;SDS011;1016;48.770;9.154;2023-05-10T07:15:03;19.60;;;2.20;;
2023;SDS011;1016;48.770;9.154;2023-05-10T07:17:29;19.70;;;2.40;;
2023;SDS011;1016;48.770;9.154;2023-05-10T07:19:54;19.00;;;1.80;;
2023;SDS011;1016;48.770;9.154;2023-05-10T07:22:20;19.57;;;1.80;;
2023;SDS011;1016;48.770;9.154;2023-05-10T07:24:45;20.50;;;1.77;;
2023;SDS011;1016;48.770;9.154;2023-05-10T07:27:11;20.10;;;2.00;;
2023;SDS011;1016;48.770;9.154;2023-05-10T07:29:37;18.77;;;1.80;;
2023;SDS011;1016;48.770;9.154;2023-05-10T07:32:03;18.90;;;2.00;;
2023;SDS011;1016;48.770;9.154;2023-05-10T07:34:29;20.43;;;2.20;;
2023;SDS011;1016;48.770;9.154;2023-05-10T07:36:58;19.37;;;2.10;;
2023;SDS011;1016;48.770;9.154;2023-05-10T07:39:23;19.70;;;2.20;;
2023;SDS011;1016;48.770;9.154;2023-05-10T07:41:49;19.10;;;2.13;;
2023;SDS011;1016;48.770;9.154;2023-05-10T07:44:15;20.60;;;1.93;;
2023;SDS011;1016;48.770;9.154;2023-05-10T07:46:43;19.70;;;2.27;;
2023;SDS011;1016;48.770;9.154;2023-05-10T07:49:08;18.63;;;1.70;;
2023;SDS011;1016;48.770;9.154;2023-05-10T07:51:34;19.93;;;1.90;;
2023;SDS011;1016;48.770;9.154;2023-05-10T07:54:00;19.23;;;2.03;;
2023;SDS011;1016;48.770;9.154;2023-05-10T07:56:26;19.63;;;2.00;;
2023;SDS011;1016;48.770;9.154;2023-05-10T07:58:58;21.70;;;1.80;;
2023;SDS011;1016;48.770;9.154;2023-05-10T08:01:24;20.20;;;1.70;;
2023;SDS011;1016;48.770;9.154;2023-05-10T08:03:50;19.90;;;2.00;;
2023;SDS011;1016;48.770;9.154;2023-05-10T08:06:17;19.30;;;1.67;;
2023;SDS011;1016;48.770;9.154;2023-05-10T08:08:43;18.60;;;1.70;;
2023;SDS011;1016;48.770;9.154;2023-05-10T08:11:14;19.10;;;1.60;;
2023;SDS011;1016;48.770;9.154;2023-05-10T08:13:42;19.30;;;1.90;;
2023;SDS011;1016;48.770;9.154;2023-05-10T08:16:08;19.10;;;1.70;;
2023;SDS011;1016;48.770;9.154;2023-05-10T08:18:34;19.13;;;1.70;;
2023;SDS011;1016;48.770;9.154;2023-05-10T08:20:59;20.07;;;1.60;;
2023;SDS011;1016;48.770;9.154;2023-05-10T08:23:25;18.67;;;1.83;;
2023;SDS011;1016;48.770;9.154;2023-05-10T08:25:50;20.07;;;1.90;;
2023;SDS011;1016;48.770;9.154;2023-05-10T08:28:16;19.13;;;1.50;;
2023;SDS011;1016;48.770;9.154;2023-05-10T08:30:41;19.20;;;1.57;;
2023;SDS011;1016;48.770;9.154;2023-05-10T08:33:07;19.50;;;1.80;;
2023;SDS011;1016;48.770;9.154;2023-05-10T08:35:33;20.27;;;1.70;;
2023;SDS011;1016;48.770;9.154;2023-05-10T08:37:59;20.43;;;1.47;;
2023;SDS011;1016;48.770;9.154;2023-05-10T08:40:25;21.20;;;1.60;;
2023;SDS011;1016;48.770;9.154;2023-05-10T08:43:04;20.40;;;1.20;;
2023;SDS011;1016;48.770;9.154;2023-05-10T08:45:38;23.30;;;1.80;;
2023;SDS011;1016;48.770;9.154;2023-05-10T08:48:06;18.90;;;1.43;;
2023;SDS011;1016;48.770;9.154;2023-05-10T08:50:34;19.90;;;2.60;;
2023;SDS011;1016;48.770;9.154;2023-05-10T08:53:02;21.93;;;2.20;;
2023;SDS011;1016;48.770;9.154;2023-05-10T08:55:30;18.60;;;1.73;;
2023;SDS011;1016;48.770;9.154;2023-05-10T08:57:57;19.70;;;1.40;;
2023;SDS011;1016;48.770;9.154;2023-05-10T09:00:23;18.57;;;1.23;;
2023;SDS011;1016;48.770;9.154;2023-05-10T09:02:49;18.80;;;1.50;;
2023;SDS011;1016;48.770;9.154;2023-05-10T09:05:15;19.00;;;1.20;;
2023;SDS011;1016;48.770;9.154;2023-05-10T09:07:42;18.37;;;1.20;;
2023;SDS011;1016;48.770;9.154;2023-05-10T09:10:08;18.60;;;1.40;;
2023;SDS011;1016;48.770;9.154;2023-05-10T09:12:34;19.77;;;1.50;;
2023;SDS011;1016;48.770;9.154;2023-05-10T09:15:00;19.73;;;1.27;;
2023;SDS011;1016;48.770;9.154;2023-05-10T09:17:26;18.37;;;1.33;;
2023;SDS011;1016;48.770;9.154;2023-05-10T09:20:00;21.93;;;1.50;;
2023;SDS011;1016;48.770;9.154;2023-05-10T09:22:27;18.97;;;1.30;;
2023;SDS011;1016;48.770;9.154;2023-05-10T09:25:26;20.47;;;1.20;;
2023;SDS011;1016;48.770;9.154;2023-05-10T09:27:45;18.43;;;1.20;;
2023;SDS011;1016;48.770;9.154;2023-05-10T09:30:28;18.67;;;1.23;;
2023;SDS011;1016;48.770;9.154;2023-05-10T09:32:56;18.63;;;1.20;;
2023;SDS011;1016;48.770;9.154;2023-05-10T09:35:23;22.93;;;1.40;;
2023;SDS011;1016;48.770;9.154;2023-05-10T09:37:51;19.40;;;1.30;;
2023;SDS011;1016;48.770;9.154;2023-05-10T09:40:22;19.10;;;1.23;;
2023;SDS011;1016;48.770;9.154;2023-05-10T09:43:02;20.03;;;1.30;;
2023;SDS011;1016;48.770;9.154;2023-05-10T09:45:32;18.50;;;1.13;;
2023;SDS011;1016;48.770;9.154;2023-05-10T09:48:00;20.17;;;1.30;;
2023;SDS011;1016;48.770;9.154;2023-05-10T09:50:27;18.50;;;1.20;;
2023;SDS011;1016;48.770;9.154;2023-05-10T09:53:00;18.50;;;1.40;;
2023;SDS011;1016;48.770;9.154;2023-05-10T09:56:01;19.00;;;1.07;;
2023;SDS011;1016;48.770;9.154;2023-05-10T09:58:20;21.87;;;1.10;;
2023;SDS011;1016;48.770;9.154;2023-05-10T10:00:46;19.40;;;1.30;;
2023;SDS011;1016;48.770;9.154;2023-05-10T10:03:13;19.43;;;1.27;;
2023;SDS011;1016;48.770;9.154;2023-05-10T10:05:44;19.10;;;1.40;;
2023;SDS011;1016;48.770;9.154;2023-05-10T10:08:10;24.20;;;1.20;;
2023;SDS011;1016;48.770;9.154;2023-05-10T10:10:36;18.77;;;1.30;;
2023;SDS011;1016;48.770;9.154;2023-05-10T10:13:05;19.60;;;1.30;;
2023;SDS011;1016;48.770;9.154;2023-05-10T10:15:30;18.90;;;1.10;;
2023;SDS011;1016;48.770;9.154;2023-05-10T10:17:58;18.67;;;1.07;;
2023;SDS011;1016;48.770;9.154;2023-05-10T10:20:26;18.97;;;1.50;;
2023;SDS011;1016;48.770;9.154;2023-05-10T10:22:53;19.20;;;1.03;;
2023;SDS011;1016;48.770;9.154;2023-05-10T10:25:19;18.83;;;1.20;;
2023;SDS011;1016;48.770;9.154;2023-05-10T10:35:59;18.83;;;1.10;;
2023;SDS011;1016;48.770;9.154;2023-05-10T10:38:35;18.87;;;1.00;;
2023;SDS011;1016;48.770;9.154;2023-05-10T10:41:03;18.53;;;1.20;;
2023;SDS011;1016;48.770;9.154;2023-05-10T10:43:34;21.10;;;1.70;;
2023;SDS011;1016;48.770;9.154;2023-05-10T10:48:46;20.50;;;1.63;;
2023;SDS011;1016;48.770;9.154;2023-05-10T10:51:13;20.50;;;1.10;;
2023;SDS011;1016;48.770;9.154;2023-05-10T10:53:39;28.80;;;2.93;;
2023;SDS011;1016;48.770;9.154;2023-05-10T10:56:09;19.13;;;1.30;;
2023;SDS011;1016;48.770;9.154;2023-05-10T10:58:36;19.00;;;1.23;;
2023;SDS011;1016;48.770;9.154;2023-05-10T11:01:16;19.40;;;1.33;;
2023;SDS011;1016;48.770;9.154;2023-05-10T11:06:36;18.70;;;1.17;;
2023;SDS011;1016;48.770;9.154;2023-05-10T11:09:05;20.80;;;1.50;;
2023;SDS011;1016;48.770;9.154;2023-05-10T11:11:32;18.80;;;1.17;;
2023;SDS011;1016;48.770;9.154;2023-05-10T11:14:04;18.57;;;1.17;;
2023;SDS011;1016;48.770;9.154;2023-05-10T11:16:43;19.13;;;1.10;;
2023;SDS011;1016;48.770;9.154;2023-05-10T11:19:13;18.87;;;1.20;;
2023;SDS011;1016;48.770;9.154;2023-05-10T11:24:30;19.10;;;1.30;;
2023;SDS011;1016;48.770;9.154;2023-05-10T11:26:56;18.77;;;1.00;;
2023;SDS011;1016;48.770;9.154;2023-05-10T11:29:22;19.70;;;1.30;;
2023;SDS011;1016;48.770;9.154;2023-05-10T11:31:49;18.87;;;1.20;;
2023;SDS011;1016;48.770;9.154;2023-05-10T11:34:36;21.10;;;1.30;;
2023;SDS011;1016;48.770;9.154;2023-05-10T11:37:01;18.57;;;1.30;;
2023;SDS011;1016;48.770;9.154;2023-05-10T11:39:27;19.60;;;1.40;;
2023;SDS011;1016;48.770;9.154;2023-05-10T11:41:56;18.43;;;1.13;;
2023;SDS011;1016;48.770;9.154;2023-05-10T11:44:23;18.63;;;1.40;;
2023;SDS011;1016;48.770;9.154;2023-05-10T11:46:53;18.37;;;1.23;;
2023;SDS011;1016;48.770;9.154;2023-05-10T11:49:19;20.97;;;1.70;;
2023;SDS011;1016;48.770;9.154;2023-05-10T11:51:47;22.77;;;1.57;;
2023;SDS011;1016;48.770;9.154;2023-05-10T11:54:13;18.83;;;1.40;;
2023;SDS011;1016;48.770;9.154;2023-05-10T11:56:39;19.90;;;1.43;;
2023;SDS011;1016;48.770;9.154;2023-05-10T11:59:05;19.87;;;1.30;;
2023;SDS011;1016;48.770;9.154;2023-05-10T12:01:31;19.03;;;1.60;;
2023;SDS011;1016;48.770;9.154;2023-05-10T12:03:57;20.17;;;1.40;;
2023;SDS011;1016;48.770;9.154;2023-05-10T12:06:28;19.00;;;1.33;;
2023;SDS011;1016;48.770;9.154;2023-05-10T12:09:02;20.17;;;1.70;;
2023;SDS011;1016;48.770;9.154;2023-05-10T12:11:31;21.20;;;1.53;;
2023;SDS011;1016;48.770;9.154;2023-05-10T12:13:57;21.17;;;1.60;;
2023;SDS011;1016;48.770;9.154;2023-05-10T12:16:24;18.70;;;1.33;;
2023;SDS011;1016;48.770;9.154;2023-05-10T12:18:51;19.10;;;1.20;;
2023;SDS011;1016;48.770;9.154;2023-05-10T12:21:19;19.17;;;1.30;;
2023;SDS011;1016;48.770;9.154;2023-05-10T12:23:49;19.60;;;1.50;;
2023;SDS011;1016;48.770;9.154;2023-05-10T12:26:17;19.87;;;1.90;;
2023;SDS011;1016;48.770;9.154;2023-05-10T12:28:42;19.43;;;1.90;;
2023;SDS011;1016;48.770;9.154;2023-05-10T12:31:09;18.67;;;1.50;;
2023;SDS011;1016;48.770;9.154;2023-05-10T12:33:38;19.50;;;1.63;;
2023;SDS011;1016;48.770;9.154;2023-05-10T12:36:09;19.17;;;1.53;;
2023;SDS011;1016;48.770;9.154;2023-05-10T12:38:36;19.23;;;1.40;;
2023;SDS011;1016;48.770;9.154;2023-05-10T12:41:15;19.50;;;1.63;;
2023;SDS011;1016;48.770;9.154;2023-05-10T12:43:42;19.70;;;1.60;;
2023;SDS011;1016;48.770;9.154;2023-05-10T12:46:08;19.03;;;1.43;;
2023;SDS011;1016;48.770;9.154;2023-05-10T12:48:35;19.67;;;1.80;;
2023;SDS011;1016;48.770;9.154;2023-05-10T12:51:01;19.80;;;1.60;;
2023;SDS011;1016;48.770;9.154;2023-05-10T12:53:28;19.67;;;1.23;;
2023;SDS011;1016;48.770;9.154;2023-05-10T12:55:54;23.43;;;1.77;;
2023;SDS011;1016;48.770;9.154;2023-05-10T12:58:19;19.30;;;1.60;;
2023;SDS011;1016;48.770;9.154;2023-05-10T13:00:45;21.30;;;1.70;;
2023;SDS011;1016;48.770;9.154;2023-05-10T13:03:11;19.40;;;1.60;;
2023;SDS011;1016;48.770;9.154;2023-05-10T13:05:37;19.87;;;1.50;;
2023;SDS011;1016;48.770;9.154;2023-05-10T13:08:02;19.27;;;1.40;;
2023;SDS011;1016;48.770;9.154;2023-05-10T13:10:29;21.97;;;1.73;;
2023;SDS011;1016;48.770;9.154;2023-05-10T13:12:55;20.03;;;1.60;;
2023;SDS011;1016;48.770;9.154;2023-05-10T13:15:21;20.10;;;1.40;;
2023;SDS011;1016;48.770;9.154;2023-05-10T13:17:50;19.27;;;1.83;;
2023;SDS011;1016;48.770;9.154;2023-05-10T13:20:16;19.07;;;1.60;;
2023;SDS011;1016;48.770;9.154;2023-05-10T13:22:45;20.00;;;1.90;;
2023;SDS011;1016;48.770;9.154;2023-05-10T13:25:11;20.67;;;1.90;;
2023;SDS011;1016;48.770;9.154;2023-05-10T13:27:37;19.70;;;1.50;;
2023;SDS011;1016;48.770;9.154;2023-05-10T13:30:06;19.50;;;1.30;;
2023;SDS011;1016;48.770;9.154;2023-05-10T13:32:32;19.10;;;1.60;;
2023;SDS011;1016;48.770;9.154;2023-05-10T13:34:58;18.77;;;1.40;;
2023;SDS011;1016;48.770;9.154;2023-05-10T13:37:24;20.00;;;1.30;;
2023;SDS011;1016;48.770;9.154;2023-05-10T13:39:49;20.73;;;1.83;;
2023;SDS011;1016;48.770;9.154;2023-05-10T13:42:15;19.77;;;1.90;;
2023;SDS011;1016;48.770;9.154;2023-05-10T13:44:40;19.60;;;1.50;;
2023;SDS011;1016;48.770;9.154;2023-05-10T13:47:06;18.63;;;1.60;;
2023;SDS011;1016;48.770;9.154;2023-05-10T13:49:32;23.40;;;1.70;;
2023;SDS011;1016;48.770;9.154;2023-05-10T13:51:58;19.47;;;1.40;;
2023;SDS011;1016;48.770;9.154;2023-05-10T13:54:25;20.50;;;1.30;;
2023;SDS011;1016;48.770;9.154;2023-05-10T13:56:54;20.20;;;1.50;;
2023;SDS011;1016;48.770;9.154;2023-05-10T13:59:19;28.73;;;1.57;;
2023;SDS011;1016;48.770;9.154;2023-05-10T14:01:45;20.20;;;1.50;;
2023;SDS011;1016;48.770;9.154;2023-05-10T14:04:10;20.23;;;1.37;;
2023;SDS011;1016;48.770;9.154;2023-05-10T14:06:36;21.37;;;1.50;;
2023;SDS011;1016;48.770;9.154;2023-05-10T14:09:04;19.20;;;1.30;;
2023;SDS011;1016;48.770;9.154;2023-05-10T14:11:30;19.80;;;1.30;;
2023;SDS011;1016;48.770;9.154;2023-05-10T14:13:55;20.27;;;1.33;;
2023;SDS011;1016;48.770;9.154;2023-05-10T14:16:21;21.00;;;1.40;;
2023;SDS011;1016;48.770;9.154;2023-05-10T14:18:47;19.70;;;1.60;;
2023;SDS011;1016;48.770;9.154;2023-05-10T14:21:12;20.80;;;1.47;;
2023;SDS011;1016;48.770;9.154;2023-05-10T14:23:38;20.00;;;1.50;;
2023;SDS011;1016;48.770;9.154;2023-05-10T14:26:04;20.30;;;1.20;;
2023;SDS011;1016;48.770;9.154;2023-05-10T14:28:30;19.67;;;1.77;;
2023;SDS011;1016;48.770;9.154;2023-05-10T14:30:55;20.57;;;1.30;;
2023;SDS011;1016;48.770;9.154;2023-05-10T14:33:21;19.50;;;1.43;;
2023;SDS011;1016;48.770;9.154;2023-05-10T14:35:47;20.67;;;1.47;;
2023;SDS011;1016;48.770;9.154;2023-05-10T14:38:13;19.50;;;1.40;;
2023;SDS011;1016;48.770;9.154;2023-05-10T14:40:39;20.50;;;1.30;;
2023;SDS011;1016;48.770;9.154;2023-05-10T14:43:04;20.93;;;1.77;;
2023;SDS011;1016;48.770;9.154;2023-05-10T14:45:30;19.40;;;1.30;;
2023;SDS011;1016;48.770;9.154;2023-05-10T14:47:56;20.43;;;1.40;;
2023;SDS011;1016;48.770;9.154;2023-05-10T14:50:22;22.80;;;1.37;;
2023;SDS011;1016;48.770;9.154;2023-05-10T14:52:48;19.70;;;1.50;;
2023;SDS011;1016;48.770;9.154;2023-05-10T14:55:14;20.00;;;1.20;;
2023;SDS011;1016;48.770;9.154;2023-05-10T14:57:40;21.20;;;1.70;;
2023;SDS011;1016;48.770;9.154;2023-05-10T15:00:06;22.80;;;1.53;;
2023;SDS011;1016;48.770;9.154;2023-05-10T15:02:32;20.00;;;1.10;;
2023;SDS011;1016;48.770;9.154;2023-05-10T15:04:57;19.97;;;1.27;;
2023;SDS011;1016;48.770;9.154;2023-05-10T15:07:23;19.77;;;1.30;;
2023;SDS011;1016;48.770;9.154;2023-05-10T15:09:49;18.90;;;1.27;;
2023;SDS011;1016;48.770;9.154;2023-05-10T15:12:16;18.67;;;1.13;;
2023;SDS011;1016;48.770;9.154;2023-05-10T15:14:42;20.10;;;1.50;;
2023;SDS011;1016;48.770;9.154;2023-05-10T15:17:07;19.37;;;1.20;;
2023;SDS011;1016;48.770;9.154;2023-05-10T15:19:33;19.60;;;1.33;;
2023;SDS011;1016;48.770;9.154;2023-05-10T15:21:58;19.17;;;1.23;;
2023;SDS011;1016;48.770;9.154;2023-05-10T15:24:24;20.10;;;1.40;;
2023;SDS011;1016;48.770;9.154;2023-05-10T15:26:50;21.60;;;1.20;;
2023;SDS011;1016;48.770;9.154;2023-05-10T15:29:15;19.07;;;1.30;;
2023;SDS011;1016;48.770;9.154;2023-05-10T15:31:48;20.27;;;1.17;;
2023;SDS011;1016;48.770;9.154;2023-05-10T15:34:15;19.20;;;1.20;;
2023;SDS011;1016;48.770;9.154;2023-05-10T15:36:41;19.30;;;1.40;;